sensor_id;sensor_type;location;lat;lon;timestamp;P1;durP1;ratioP1;P2;durP2;ratioP2
3726;SDS011;1879;45.876;12.300;2023-03-05T00:00:11;49.30;;;39.40;;
3726;SDS011;1879;45.876;12.300;2023-03-05T00:02:39;50.70;;;39.20;;
3726;SDS011;1879;45.876;12.300;2023-03-05T00:05:06;48.50;;;39.80;;
3726;SDS011;1879;45.876;12.300;2023-03-05T00:07:34;44.20;;;36.60;;
3726;SDS011;1879;45.876;12.300;2023-03-05T00:10:02;49.43;;;37.30;;
3726;SDS011;1879;45.876;12.300;2023-03-05T00:12:34;41.40;;;32.87;;
3726;SDS011;1879;45.876;12.300;2023-03-05T00:15:01;41.13;;;31.70;;
3726;SDS011;1879;45.876;12.300;2023-03-05T00:17:28;35.53;;;29.83;;
3726;SDS011;1879;45.876;12.300;2023-03-05T00:19:57;47.57;;;34.20;;
3726;SDS011;1879;45.876;12.300;2023-03-05T00:22:24;47.40;;;37.20;;
3726;SDS011;1879;45.876;12.300;2023-03-05T00:24:51;40.17;;;31.73;;
3726;SDS011;1879;45.876;12.300;2023-03-05T00:27:18;35.03;;;28.80;;
3726;SDS011;1879;45.876;12.300;2023-03-05T00:29:47;39.23;;;28.73;;
3726;SDS011;1879;45.876;12.300;2023-03-05T00:32:14;38.97;;;29.53;;
3726;SDS011;1879;45.876;12.300;2023-03-05T00:34:41;42.50;;;31.17;;
3726;SDS011;1879;45.876;12.300;2023-03-05T00:37:08;38.33;;;30.30;;
3726;SDS011;1879;45.876;12.300;2023-03-05T00:39:35;35.63;;;27.90;;
3726;SDS011;1879;45.876;12.300;2023-03-05T00:42:02;44.93;;;31.47;;
3726;SDS011;1879;45.876;12.300;2023-03-05T00:44:29;38.87;;;29.90;;
3726;SDS011;1879;45.876;12.300;2023-03-05T00:46:57;42.20;;;32.70;;
3726;SDS011;1879;45.876;12.300;2023-03-05T00:49:24;36.60;;;30.80;;
3726;SDS011;1879;45.876;12.300;2023-03-05T00:51:51;43.13;;;33.30;;
3726;SDS011;1879;45.876;12.300;2023-03-05T00:54:18;39.30;;;32.90;;
3726;SDS011;1879;45.876;12.300;2023-03-05T00:56:46;43.80;;;31.63;;
3726;SDS011;1879;45.876;12.300;2023-03-05T00:59:13;39.33;;;31.60;;
3726;SDS011;1879;45.876;12.300;2023-03-05T01:01:40;41.43;;;31.07;;
3726;SDS011;1879;45.876;12.300;2023-03-05T01:04:09;38.03;;;30.23;;
3726;SDS011;1879;45.876;12.300;2023-03-05T01:06:36;38.00;;;30.03;;
3726;SDS011;1879;45.876;12.300;2023-03-05T01:09:06;36.37;;;29.03;;
3726;SDS011;1879;45.876;12.300;2023-03-05T01:11:33;38.80;;;30.20;;
3726;SDS011;1879;45.876;12.300;2023-03-05T01:14:00;39.43;;;30.10;;
3726;SDS011;1879;45.876;12.300;2023-03-05T01:16:27;40.03;;;30.33;;
3726;SDS011;1879;45.876;12.300;2023-03-05T01:18:54;35.73;;;27.60;;
3726;SDS011;1879;45.876;12.300;2023-03-05T01:21:23;31.80;;;27.00;;
3726;SDS011;1879;45.876;12.300;2023-03-05T01:23:50;39.07;;;28.60;;
3726;SDS011;1879;45.876;12.300;2023-03-05T01:26:17;36.33;;;29.70;;
3726;SDS011;1879;45.876;12.300;2023-03-05T01:28:44;35.40;;;28.63;;
3726;SDS011;1879;45.876;12.300;2023-03-05T01:31:11;33.83;;;26.53;;
3726;SDS011;1879;45.876;12.300;2023-03-05T01:33:38;30.20;;;25.00;;
3726;SDS011;1879;45.876;12.300;2023-03-05T01:36:06;30.63;;;25.10;;
3726;SDS011;1879;45.876;12.300;2023-03-05T01:38:37;32.20;;;23.80;;
3726;SDS011;1879;45.876;12.300;2023-03-05T01:41:04;31.60;;;24.10;;
3726;SDS011;1879;45.876;12.300;2023-03-05T01:43:32;29.33;;;24.00;;
3726;SDS011;1879;45.876;12.300;2023-03-05T01:48:59;28.17;;;22.80;;
3726;SDS011;1879;45.876;12.300;2023-03-05T01:51:30;29.97;;;22.00;;
3726;SDS011;1879;45.876;12.300;2023-03-05T01:54:03;36.40;;;25.80;;
3726;SDS011;1879;45.876;12.300;2023-03-05T01:56:32;31.83;;;24.37;;
3726;SDS011;1879;45.876;12.300;2023-03-05T01:59:00;31.97;;;24.47;;
3726;SDS011;1879;45.876;12.300;2023-03-05T02:01:29;34.50;;;25.20;;
3726;SDS011;1879;45.876;12.300;2023-03-05T02:03:59;33.90;;;25.53;;
3726;SDS011;1879;45.876;12.300;2023-03-05T02:06:30;35.60;;;24.37;;
3726;SDS011;1879;45.876;12.300;2023-03-05T02:08:58;30.93;;;23.90;;
3726;SDS011;1879;45.876;12.300;2023-03-05T02:11:26;32.47;;;23.87;;
3726;SDS011;1879;45.876;12.300;2023-03-05T02:13:54;28.07;;;23.73;;
3726;SDS011;1879;45.876;12.300;2023-03-05T02:16:21;27.33;;;21.53;;
3726;SDS011;1879;45.876;12.300;2023-03-05T02:18:48;28.00;;;20.93;;
3726;SDS011;1879;45.876;12.300;2023-03-05T02:21:18;24.20;;;20.37;;
3726;SDS011;1879;45.876;12.300;2023-03-05T02:23:53;25.97;;;20.07;;
3726;SDS011;1879;45.876;12.300;2023-03-05T02:26:20;22.80;;;18.73;;
3726;SDS011;1879;45.876;12.300;2023-03-05T02:28:49;23.40;;;19.13;;
3726;SDS011;1879;45.876;12.300;2023-03-05T02:31:19;23.53;;;21.03;;
3726;SDS011;1879;45.876;12.300;2023-03-05T02:33:48;26.30;;;20.87;;
3726;SDS011;1879;45.876;12.300;2023-03-05T02:36:15;24.23;;;20.60;;
3726;SDS011;1879;45.876;12.300;2023-03-05T02:38:44;27.10;;;20.70;;
3726;SDS011;1879;45.876;12.300;2023-03-05T02:41:12;26.30;;;20.83;;
3726;SDS011;1879;45.876;12.300;2023-03-05T02:43:40;26.80;;;21.73;;
3726;SDS011;1879;45.876;12.300;2023-03-05T02:46:07;23.13;;;20.63;;
3726;SDS011;1879;45.876;12.300;2023-03-05T02:48:34;26.97;;;17.47;;
3726;SDS011;1879;45.876;12.300;2023-03-05T02:51:02;21.03;;;17.23;;
3726;SDS011;1879;45.876;12.300;2023-03-05T02:53:30;20.90;;;17.30;;
3726;SDS011;1879;45.876;12.300;2023-03-05T02:55:59;27.00;;;20.03;;
3726;SDS011;1879;45.876;12.300;2023-03-05T02:58:26;23.00;;;17.97;;
3726;SDS011;1879;45.876;12.300;2023-03-05T03:00:53;25.73;;;19.10;;
3726;SDS011;1879;45.876;12.300;2023-03-05T03:03:20;19.30;;;16.80;;
3726;SDS011;1879;45.876;12.300;2023-03-05T03:05:47;30.00;;;17.97;;
3726;SDS011;1879;45.876;12.300;2023-03-05T03:08:14;23.70;;;17.73;;
3726;SDS011;1879;45.876;12.300;2023-03-05T03:10:40;19.63;;;17.53;;
3726;SDS011;1879;45.876;12.300;2023-03-05T03:13:09;22.23;;;16.73;;
3726;SDS011;1879;45.876;12.300;2023-03-05T03:15:36;25.20;;;17.77;;
3726;SDS011;1879;45.876;12.300;2023-03-05T03:18:04;25.37;;;18.80;;
3726;SDS011;1879;45.876;12.300;2023-03-05T03:20:31;19.60;;;17.20;;
3726;SDS011;1879;45.876;12.300;2023-03-05T03:22:59;22.87;;;17.20;;
3726;SDS011;1879;45.876;12.300;2023-03-05T03:25:26;23.90;;;18.63;;
3726;SDS011;1879;45.876;12.300;2023-03-05T03:27:53;22.47;;;17.40;;
3726;SDS011;1879;45.876;12.300;2023-03-05T03:30:22;20.57;;;17.17;;
3726;SDS011;1879;45.876;12.300;2023-03-05T03:32:49;22.93;;;17.20;;
3726;SDS011;1879;45.876;12.300;2023-03-05T03:35:16;21.53;;;17.97;;
3726;SDS011;1879;45.876;12.300;2023-03-05T03:37:43;19.93;;;15.73;;
3726;SDS011;1879;45.876;12.300;2023-03-05T03:40:10;21.13;;;18.87;;
3726;SDS011;1879;45.876;12.300;2023-03-05T03:42:38;21.63;;;16.00;;
3726;SDS011;1879;45.876;12.300;2023-03-05T03:45:05;22.83;;;16.90;;
3726;SDS011;1879;45.876;12.300;2023-03-05T03:47:34;23.47;;;17.70;;
3726;SDS011;1879;45.876;12.300;2023-03-05T03:50:02;17.37;;;15.00;;
3726;SDS011;1879;45.876;12.300;2023-03-05T03:52:29;19.83;;;17.57;;
3726;SDS011;1879;45.876;12.300;2023-03-05T03:54:56;23.87;;;17.10;;
3726;SDS011;1879;45.876;12.300;2023-03-05T03:57:26;20.70;;;16.50;;
3726;SDS011;1879;45.876;12.300;2023-03-05T03:59:57;18.60;;;15.10;;
3726;SDS011;1879;45.876;12.300;2023-03-05T04:02:24;19.33;;;17.30;;
3726;SDS011;1879;45.876;12.300;2023-03-05T04:04:53;25.87;;;19.17;;
3726;SDS011;1879;45.876;12.300;2023-03-05T04:07:20;19.47;;;16.63;;
3726;SDS011;1879;45.876;12.300;2023-03-05T04:09:47;20.37;;;16.90;;
3726;SDS011;1879;45.876;12.300;2023-03-05T04:12:14;29.50;;;15.80;;
3726;SDS011;1879;45.876;12.300;2023-03-05T04:14:42;21.50;;;14.73;;
3726;SDS011;1879;45.876;12.300;2023-03-05T04:17:10;17.03;;;14.13;;
3726;SDS011;1879;45.876;12.300;2023-03-05T04:19:38;18.33;;;16.03;;
3726;SDS011;1879;45.876;12.300;2023-03-05T04:22:07;18.93;;;14.50;;
3726;SDS011;1879;45.876;12.300;2023-03-05T04:24:36;17.57;;;14.40;;
3726;SDS011;1879;45.876;12.300;2023-03-05T04:27:03;18.20;;;16.30;;
3726;SDS011;1879;45.876;12.300;2023-03-05T04:29:30;16.47;;;13.53;;
3726;SDS011;1879;45.876;12.300;2023-03-05T04:31:58;17.40;;;14.70;;
3726;SDS011;1879;45.876;12.300;2023-03-05T04:34:25;17.13;;;14.70;;
3726;SDS011;1879;45.876;12.300;2023-03-05T04:36:52;16.93;;;14.07;;
3726;SDS011;1879;45.876;12.300;2023-03-05T04:39:20;20.90;;;15.63;;
3726;SDS011;1879;45.876;12.300;2023-03-05T04:41:49;20.40;;;14.63;;
3726;SDS011;1879;45.876;12.300;2023-03-05T04:44:16;17.07;;;15.03;;
3726;SDS011;1879;45.876;12.300;2023-03-05T04:46:43;23.40;;;16.00;;
3726;SDS011;1879;45.876;12.300;2023-03-05T04:49:10;14.93;;;13.43;;
3726;SDS011;1879;45.876;12.300;2023-03-05T04:51:37;19.00;;;15.60;;
3726;SDS011;1879;45.876;12.300;2023-03-05T04:54:04;18.83;;;13.00;;
3726;SDS011;1879;45.876;12.300;2023-03-05T04:56:33;15.63;;;13.00;;
3726;SDS011;1879;45.876;12.300;2023-03-05T04:59:00;14.73;;;12.90;;
3726;SDS011;1879;45.876;12.300;2023-03-05T05:01:27;15.63;;;13.13;;
3726;SDS011;1879;45.876;12.300;2023-03-05T05:03:54;16.23;;;13.20;;
3726;SDS011;1879;45.876;12.300;2023-03-05T05:06:21;17.83;;;14.00;;
3726;SDS011;1879;45.876;12.300;2023-03-05T05:08:48;16.30;;;13.47;;
3726;SDS011;1879;45.876;12.300;2023-03-05T05:11:15;17.80;;;13.30;;
3726;SDS011;1879;45.876;12.300;2023-03-05T05:13:43;15.03;;;13.47;;
3726;SDS011;1879;45.876;12.300;2023-03-05T05:16:10;16.80;;;13.07;;
3726;SDS011;1879;45.876;12.300;2023-03-05T05:18:37;18.13;;;13.30;;
3726;SDS011;1879;45.876;12.300;2023-03-05T05:21:07;14.43;;;12.93;;
3726;SDS011;1879;45.876;12.300;2023-03-05T05:23:36;17.40;;;13.37;;
3726;SDS011;1879;45.876;12.300;2023-03-05T05:26:03;17.10;;;14.10;;
3726;SDS011;1879;45.876;12.300;2023-03-05T05:28:32;18.27;;;13.33;;
3726;SDS011;1879;45.876;12.300;2023-03-05T05:31:04;17.70;;;14.07;;
3726;SDS011;1879;45.876;12.300;2023-03-05T05:33:32;17.53;;;14.10;;
3726;SDS011;1879;45.876;12.300;2023-03-05T05:36:00;15.40;;;13.70;;
3726;SDS011;1879;45.876;12.300;2023-03-05T05:38:28;19.90;;;14.10;;
3726;SDS011;1879;45.876;12.300;2023-03-05T05:41:00;16.20;;;13.73;;
3726;SDS011;1879;45.876;12.300;2023-03-05T05:43:28;15.57;;;14.07;;
3726;SDS011;1879;45.876;12.300;2023-03-05T05:45:57;17.87;;;15.53;;
3726;SDS011;1879;45.876;12.300;2023-03-05T05:48:28;18.53;;;16.13;;
3726;SDS011;1879;45.876;12.300;2023-03-05T05:50:56;16.50;;;14.80;;
3726;SDS011;1879;45.876;12.300;2023-03-05T05:53:23;18.17;;;15.57;;
3726;SDS011;1879;45.876;12.300;2023-03-05T05:55:51;16.77;;;15.07;;
3726;SDS011;1879;45.876;12.300;2023-03-05T05:58:18;16.03;;;14.10;;
3726;SDS011;1879;45.876;12.300;2023-03-05T06:00:45;20.40;;;16.17;;
3726;SDS011;1879;45.876;12.300;2023-03-05T06:03:12;16.97;;;15.20;;
3726;SDS011;1879;45.876;12.300;2023-03-05T06:05:41;21.30;;;15.57;;
3726;SDS011;1879;45.876;12.300;2023-03-05T06:08:08;19.03;;;14.57;;
3726;SDS011;1879;45.876;12.300;2023-03-05T06:10:35;21.10;;;17.33;;
3726;SDS011;1879;45.876;12.300;2023-03-05T06:13:02;19.97;;;16.73;;
3726;SDS011;1879;45.876;12.300;2023-03-05T06:15:30;19.67;;;16.07;;
3726;SDS011;1879;45.876;12.300;2023-03-05T06:17:57;24.67;;;18.80;;
3726;SDS011;1879;45.876;12.300;2023-03-05T06:20:25;23.10;;;19.57;;
3726;SDS011;1879;45.876;12.300;2023-03-05T06:22:53;22.10;;;17.20;;
3726;SDS011;1879;45.876;12.300;2023-03-05T06:25:21;19.83;;;16.83;;
3726;SDS011;1879;45.876;12.300;2023-03-05T06:27:48;21.77;;;16.37;;
3726;SDS011;1879;45.876;12.300;2023-03-05T06:30:15;16.70;;;15.10;;
3726;SDS011;1879;45.876;12.300;2023-03-05T06:32:42;17.40;;;15.57;;
3726;SDS011;1879;45.876;12.300;2023-03-05T06:35:09;19.60;;;15.70;;
3726;SDS011;1879;45.876;12.300;2023-03-05T06:37:38;20.00;;;16.27;;
3726;SDS011;1879;45.876;12.300;2023-03-05T06:40:07;25.30;;;18.13;;
3726;SDS011;1879;45.876;12.300;2023-03-05T06:42:35;20.00;;;16.07;;
3726;SDS011;1879;45.876;12.300;2023-03-05T06:45:02;21.60;;;16.90;;
3726;SDS011;1879;45.876;12.300;2023-03-05T06:47:30;21.60;;;17.37;;
3726;SDS011;1879;45.876;12.300;2023-03-05T06:50:00;19.77;;;16.20;;
3726;SDS011;1879;45.876;12.300;2023-03-05T06:52:28;17.70;;;15.20;;
3726;SDS011;1879;45.876;12.300;2023-03-05T06:54:55;18.47;;;15.13;;
3726;SDS011;1879;45.876;12.300;2023-03-05T06:57:23;18.17;;;15.50;;
3726;SDS011;1879;45.876;12.300;2023-03-05T06:59:50;18.20;;;16.10;;
3726;SDS011;1879;45.876;12.300;2023-03-05T07:02:17;17.60;;;15.67;;
3726;SDS011;1879;45.876;12.300;2023-03-05T07:04:44;17.83;;;15.83;;
3726;SDS011;1879;45.876;12.300;2023-03-05T07:07:11;19.23;;;15.03;;
3726;SDS011;1879;45.876;12.300;2023-03-05T07:09:38;14.83;;;13.23;;
3726;SDS011;1879;45.876;12.300;2023-03-05T07:12:08;21.23;;;15.53;;
3726;SDS011;1879;45.876;12.300;2023-03-05T07:14:37;16.53;;;14.37;;
3726;SDS011;1879;45.876;12.300;2023-03-05T07:17:04;24.63;;;21.40;;
3726;SDS011;1879;45.876;12.300;2023-03-05T07:19:32;37.07;;;30.00;;
3726;SDS011;1879;45.876;12.300;2023-03-05T07:21:59;47.40;;;37.43;;
3726;SDS011;1879;45.876;12.300;2023-03-05T07:24:26;52.93;;;38.87;;
3726;SDS011;1879;45.876;12.300;2023-03-05T07:26:54;46.47;;;36.57;;
3726;SDS011;1879;45.876;12.300;2023-03-05T07:29:21;33.80;;;26.20;;
3726;SDS011;1879;45.876;12.300;2023-03-05T07:31:50;25.33;;;22.73;;
3726;SDS011;1879;45.876;12.300;2023-03-05T07:34:17;22.13;;;19.77;;
3726;SDS011;1879;45.876;12.300;2023-03-05T07:36:45;19.43;;;16.97;;
3726;SDS011;1879;45.876;12.300;2023-03-05T07:39:16;19.30;;;16.30;;
3726;SDS011;1879;45.876;12.300;2023-03-05T07:41:44;20.10;;;17.43;;
3726;SDS011;1879;45.876;12.300;2023-03-05T07:44:11;20.93;;;17.70;;
3726;SDS011;1879;45.876;12.300;2023-03-05T07:46:38;19.10;;;16.13;;
3726;SDS011;1879;45.876;12.300;2023-03-05T07:49:07;26.13;;;18.30;;
3726;SDS011;1879;45.876;12.300;2023-03-05T07:51:34;24.23;;;18.97;;
3726;SDS011;1879;45.876;12.300;2023-03-05T07:54:01;22.17;;;17.87;;
3726;SDS011;1879;45.876;12.300;2023-03-05T07:56:29;19.20;;;16.90;;
3726;SDS011;1879;45.876;12.300;2023-03-05T07:59:00;19.63;;;16.33;;
3726;SDS011;1879;45.876;12.300;2023-03-05T08:01:31;17.40;;;15.03;;
3726;SDS011;1879;45.876;12.300;2023-03-05T08:03:58;16.43;;;14.77;;
3726;SDS011;1879;45.876;12.300;2023-03-05T08:06:27;22.50;;;15.50;;
3726;SDS011;1879;45.876;12.300;2023-03-05T08:08:56;18.63;;;14.90;;
3726;SDS011;1879;45.876;12.300;2023-03-05T08:11:23;17.20;;;14.60;;
3726;SDS011;1879;45.876;12.300;2023-03-05T08:13:52;13.93;;;12.10;;
3726;SDS011;1879;45.876;12.300;2023-03-05T08:16:20;16.93;;;11.87;;
3726;SDS011;1879;45.876;12.300;2023-03-05T08:18:49;14.23;;;11.43;;
3726;SDS011;1879;45.876;12.300;2023-03-05T08:21:21;13.80;;;11.40;;
3726;SDS011;1879;45.876;12.300;2023-03-05T08:23:52;14.13;;;11.80;;
3726;SDS011;1879;45.876;12.300;2023-03-05T08:26:20;14.63;;;10.97;;
3726;SDS011;1879;45.876;12.300;2023-03-05T08:28:49;14.30;;;10.73;;
3726;SDS011;1879;45.876;12.300;2023-03-05T08:31:17;12.67;;;10.30;;
3726;SDS011;1879;45.876;12.300;2023-03-05T08:33:45;12.83;;;11.17;;
3726;SDS011;1879;45.876;12.300;2023-03-05T08:36:12;13.17;;;11.70;;
3726;SDS011;1879;45.876;12.300;2023-03-05T08:38:39;12.47;;;11.13;;
3726;SDS011;1879;45.876;12.300;2023-03-05T08:41:10;20.10;;;12.03;;
3726;SDS011;1879;45.876;12.300;2023-03-05T08:43:37;13.77;;;10.93;;
3726;SDS011;1879;45.876;12.300;2023-03-05T08:46:04;14.00;;;11.10;;
3726;SDS011;1879;45.876;12.300;2023-03-05T08:48:31;14.33;;;11.13;;
3726;SDS011;1879;45.876;12.300;2023-03-05T08:51:03;13.80;;;11.53;;
3726;SDS011;1879;45.876;12.300;2023-03-05T08:53:34;12.47;;;10.93;;
3726;SDS011;1879;45.876;12.300;2023-03-05T08:56:01;16.33;;;11.60;;
3726;SDS011;1879;45.876;12.300;2023-03-05T08:58:30;12.80;;;10.20;;
3726;SDS011;1879;45.876;12.300;2023-03-05T09:00:57;13.53;;;9.83;;
3726;SDS011;1879;45.876;12.300;2023-03-05T09:03:24;11.77;;;10.20;;
3726;SDS011;1879;45.876;12.300;2023-03-05T09:05:52;17.13;;;11.83;;
3726;SDS011;1879;45.876;12.300;2023-03-05T09:08:19;16.00;;;11.40;;
3726;SDS011;1879;45.876;12.300;2023-03-05T09:10:46;16.53;;;11.00;;
3726;SDS011;1879;45.876;12.300;2023-03-05T09:13:13;14.30;;;10.83;;
3726;SDS011;1879;45.876;12.300;2023-03-05T09:15:41;12.33;;;10.97;;
3726;SDS011;1879;45.876;12.300;2023-03-05T09:18:08;12.67;;;11.20;;
3726;SDS011;1879;45.876;12.300;2023-03-05T09:20:36;13.80;;;10.90;;
3726;SDS011;1879;45.876;12.300;2023-03-05T09:23:03;15.50;;;11.23;;
3726;SDS011;1879;45.876;12.300;2023-03-05T09:25:30;15.87;;;11.87;;
3726;SDS011;1879;45.876;12.300;2023-03-05T09:27:57;15.70;;;12.10;;
3726;SDS011;1879;45.876;12.300;2023-03-05T09:30:24;16.70;;;11.37;;
3726;SDS011;1879;45.876;12.300;2023-03-05T09:32:53;13.80;;;10.77;;
3726;SDS011;1879;45.876;12.300;2023-03-05T09:35:20;11.60;;;10.20;;
3726;SDS011;1879;45.876;12.300;2023-03-05T09:37:47;13.67;;;11.30;;
3726;SDS011;1879;45.876;12.300;2023-03-05T09:40:15;14.00;;;10.80;;
3726;SDS011;1879;45.876;12.300;2023-03-05T09:42:45;17.37;;;11.20;;
3726;SDS011;1879;45.876;12.300;2023-03-05T09:45:26;13.13;;;11.57;;
3726;SDS011;1879;45.876;12.300;2023-03-05T09:47:59;13.63;;;11.90;;
3726;SDS011;1879;45.876;12.300;2023-03-05T09:50:37;15.90;;;12.73;;
3726;SDS011;1879;45.876;12.300;2023-03-05T09:53:11;15.97;;;11.97;;
3726;SDS011;1879;45.876;12.300;2023-03-05T09:55:46;16.27;;;13.03;;
3726;SDS011;1879;45.876;12.300;2023-03-05T09:58:18;13.23;;;11.20;;
3726;SDS011;1879;45.876;12.300;2023-03-05T10:00:56;18.77;;;11.70;;
3726;SDS011;1879;45.876;12.300;2023-03-05T10:03:30;14.60;;;10.70;;
3726;SDS011;1879;45.876;12.300;2023-03-05T10:06:10;12.03;;;10.73;;
3726;SDS011;1879;45.876;12.300;2023-03-05T10:08:47;13.83;;;11.43;;
3726;SDS011;1879;45.876;12.300;2023-03-05T10:11:23;14.80;;;11.70;;
3726;SDS011;1879;45.876;12.300;2023-03-05T10:14:03;18.90;;;12.83;;
3726;SDS011;1879;45.876;12.300;2023-03-05T10:16:45;12.27;;;10.80;;
3726;SDS011;1879;45.876;12.300;2023-03-05T10:19:26;16.90;;;12.60;;
3726;SDS011;1879;45.876;12.300;2023-03-05T10:22:13;15.80;;;11.90;;
3726;SDS011;1879;45.876;12.300;2023-03-05T10:24:49;16.47;;;12.50;;
3726;SDS011;1879;45.876;12.300;2023-03-05T10:27:27;13.70;;;11.83;;
3726;SDS011;1879;45.876;12.300;2023-03-05T10:30:03;16.50;;;13.40;;
3726;SDS011;1879;45.876;12.300;2023-03-05T10:32:45;17.10;;;13.33;;
3726;SDS011;1879;45.876;12.300;2023-03-05T10:38:34;13.87;;;12.13;;
3726;SDS011;1879;45.876;12.300;2023-03-05T10:41:19;20.30;;;15.60;;
3726;SDS011;1879;45.876;12.300;2023-03-05T10:43:55;26.47;;;17.40;;
3726;SDS011;1879;45.876;12.300;2023-03-05T10:46:30;28.00;;;16.67;;
3726;SDS011;1879;45.876;12.300;2023-03-05T10:49:01;20.37;;;17.73;;
3726;SDS011;1879;45.876;12.300;2023-03-05T10:51:40;19.70;;;15.97;;
3726;SDS011;1879;45.876;12.300;2023-03-05T10:54:14;21.40;;;16.43;;
3726;SDS011;1879;45.876;12.300;2023-03-05T10:56:49;20.50;;;15.03;;
3726;SDS011;1879;45.876;12.300;2023-03-05T10:59:16;23.73;;;17.77;;
3726;SDS011;1879;45.876;12.300;2023-03-05T11:01:45;20.53;;;17.37;;
3726;SDS011;1879;45.876;12.300;2023-03-05T11:04:28;21.50;;;17.53;;
3726;SDS011;1879;45.876;12.300;2023-03-05T11:07:01;19.30;;;15.83;;
3726;SDS011;1879;45.876;12.300;2023-03-05T11:09:32;20.73;;;17.20;;
3726;SDS011;1879;45.876;12.300;2023-03-05T11:12:10;23.10;;;18.00;;
3726;SDS011;1879;45.876;12.300;2023-03-05T11:14:41;22.83;;;17.67;;
3726;SDS011;1879;45.876;12.300;2023-03-05T11:17:23;22.33;;;19.40;;
3726;SDS011;1879;45.876;12.300;2023-03-05T11:19:53;23.47;;;19.70;;
3726;SDS011;1879;45.876;12.300;2023-03-05T11:22:22;23.43;;;19.40;;
3726;SDS011;1879;45.876;12.300;2023-03-05T11:25:04;28.00;;;19.40;;
3726;SDS011;1879;45.876;12.300;2023-03-05T11:27:42;27.00;;;20.17;;
3726;SDS011;1879;45.876;12.300;2023-03-05T11:30:18;23.77;;;18.33;;
3726;SDS011;1879;45.876;12.300;2023-03-05T11:32:47;23.60;;;20.60;;
3726;SDS011;1879;45.876;12.300;2023-03-05T11:35:25;23.60;;;19.90;;
3726;SDS011;1879;45.876;12.300;2023-03-05T11:38:01;26.30;;;21.10;;
3726;SDS011;1879;45.876;12.300;2023-03-05T11:40:29;25.57;;;20.17;;
3726;SDS011;1879;45.876;12.300;2023-03-05T11:43:00;25.70;;;20.93;;
3726;SDS011;1879;45.876;12.300;2023-03-05T11:45:29;23.07;;;20.50;;
3726;SDS011;1879;45.876;12.300;2023-03-05T11:47:59;24.23;;;20.30;;
3726;SDS011;1879;45.876;12.300;2023-03-05T11:50:32;25.90;;;21.27;;
3726;SDS011;1879;45.876;12.300;2023-03-05T11:53:03;24.90;;;20.87;;
3726;SDS011;1879;45.876;12.300;2023-03-05T11:55:33;19.97;;;17.77;;
3726;SDS011;1879;45.876;12.300;2023-03-05T12:00:53;22.43;;;19.87;;
3726;SDS011;1879;45.876;12.300;2023-03-05T12:03:21;23.47;;;21.23;;
3726;SDS011;1879;45.876;12.300;2023-03-05T12:05:52;22.83;;;20.50;;
3726;SDS011;1879;45.876;12.300;2023-03-05T12:08:25;23.00;;;19.50;;
3726;SDS011;1879;45.876;12.300;2023-03-05T12:10:55;21.87;;;18.33;;
3726;SDS011;1879;45.876;12.300;2023-03-05T12:13:26;22.77;;;20.37;;
3726;SDS011;1879;45.876;12.300;2023-03-05T12:16:02;22.13;;;20.03;;
3726;SDS011;1879;45.876;12.300;2023-03-05T12:18:37;21.57;;;19.10;;
3726;SDS011;1879;45.876;12.300;2023-03-05T12:21:14;19.50;;;17.60;;
3726;SDS011;1879;45.876;12.300;2023-03-05T12:23:50;21.97;;;19.87;;
3726;SDS011;1879;45.876;12.300;2023-03-05T12:26:19;24.30;;;21.10;;
3726;SDS011;1879;45.876;12.300;2023-03-05T12:29:11;25.07;;;22.07;;
3726;SDS011;1879;45.876;12.300;2023-03-05T12:31:54;21.30;;;19.20;;
3726;SDS011;1879;45.876;12.300;2023-03-05T12:34:35;21.37;;;19.17;;
3726;SDS011;1879;45.876;12.300;2023-03-05T12:37:13;19.90;;;17.80;;
3726;SDS011;1879;45.876;12.300;2023-03-05T12:40:21;21.50;;;17.97;;
3726;SDS011;1879;45.876;12.300;2023-03-05T12:42:52;19.50;;;17.60;;
3726;SDS011;1879;45.876;12.300;2023-03-05T12:45:25;18.67;;;16.77;;
3726;SDS011;1879;45.876;12.300;2023-03-05T12:51:26;17.83;;;16.20;;
3726;SDS011;1879;45.876;12.300;2023-03-05T12:54:22;19.40;;;17.30;;
3726;SDS011;1879;45.876;12.300;2023-03-05T12:56:56;16.30;;;14.70;;
3726;SDS011;1879;45.876;12.300;2023-03-05T12:59:26;18.60;;;16.80;;
3726;SDS011;1879;45.876;12.300;2023-03-05T13:02:09;17.43;;;15.73;;
3726;SDS011;1879;45.876;12.300;2023-03-05T13:04:45;18.83;;;17.03;;
3726;SDS011;1879;45.876;12.300;2023-03-05T13:07:14;18.23;;;16.40;;
3726;SDS011;1879;45.876;12.300;2023-03-05T13:09:49;17.17;;;15.37;;
3726;SDS011;1879;45.876;12.300;2023-03-05T13:12:19;17.60;;;15.80;;
3726;SDS011;1879;45.876;12.300;2023-03-05T13:14:47;16.27;;;14.70;;
3726;SDS011;1879;45.876;12.300;2023-03-05T13:17:28;15.53;;;13.93;;
3726;SDS011;1879;45.876;12.300;2023-03-05T13:19:57;18.00;;;16.30;;
3726;SDS011;1879;45.876;12.300;2023-03-05T13:22:25;17.37;;;15.73;;
3726;SDS011;1879;45.876;12.300;2023-03-05T13:25:02;18.87;;;17.00;;
3726;SDS011;1879;45.876;12.300;2023-03-05T13:27:41;16.67;;;15.17;;
3726;SDS011;1879;45.876;12.300;2023-03-05T13:30:22;16.40;;;14.80;;
3726;SDS011;1879;45.876;12.300;2023-03-05T13:32:51;16.70;;;15.10;;
3726;SDS011;1879;45.876;12.300;2023-03-05T13:35:23;18.50;;;16.40;;
3726;SDS011;1879;45.876;12.300;2023-03-05T13:37:50;18.20;;;16.40;;
3726;SDS011;1879;45.876;12.300;2023-03-05T13:40:18;16.63;;;15.03;;
3726;SDS011;1879;45.876;12.300;2023-03-05T13:42:48;18.77;;;14.90;;
3726;SDS011;1879;45.876;12.300;2023-03-05T13:45:24;15.73;;;14.23;;
3726;SDS011;1879;45.876;12.300;2023-03-05T13:47:54;16.77;;;15.07;;
3726;SDS011;1879;45.876;12.300;2023-03-05T13:50:23;16.23;;;14.63;;
3726;SDS011;1879;45.876;12.300;2023-03-05T13:52:52;16.50;;;14.80;;
3726;SDS011;1879;45.876;12.300;2023-03-05T13:55:19;17.07;;;15.40;;
3726;SDS011;1879;45.876;12.300;2023-03-05T13:57:47;17.03;;;15.33;;
3726;SDS011;1879;45.876;12.300;2023-03-05T14:00:24;16.63;;;14.93;;
3726;SDS011;1879;45.876;12.300;2023-03-05T14:02:54;16.47;;;14.77;;
3726;SDS011;1879;45.876;12.300;2023-03-05T14:05:22;15.53;;;14.10;;
3726;SDS011;1879;45.876;12.300;2023-03-05T14:07:50;16.37;;;14.23;;
3726;SDS011;1879;45.876;12.300;2023-03-05T14:10:27;17.27;;;14.27;;
3726;SDS011;1879;45.876;12.300;2023-03-05T14:12:58;15.73;;;14.33;;
3726;SDS011;1879;45.876;12.300;2023-03-05T14:15:28;16.20;;;13.90;;
3726;SDS011;1879;45.876;12.300;2023-03-05T14:18:14;15.27;;;13.80;;
3726;SDS011;1879;45.876;12.300;2023-03-05T14:20:56;17.07;;;15.40;;
3726;SDS011;1879;45.876;12.300;2023-03-05T14:23:33;15.27;;;13.73;;
3726;SDS011;1879;45.876;12.300;2023-03-05T14:26:22;17.10;;;13.73;;
3726;SDS011;1879;45.876;12.300;2023-03-05T14:28:56;15.50;;;13.40;;
3726;SDS011;1879;45.876;12.300;2023-03-05T14:31:24;15.97;;;13.40;;
3726;SDS011;1879;45.876;12.300;2023-03-05T14:33:53;17.07;;;14.30;;
3726;SDS011;1879;45.876;12.300;2023-03-05T14:36:26;15.57;;;13.97;;
3726;SDS011;1879;45.876;12.300;2023-03-05T14:38:54;16.10;;;14.13;;
3726;SDS011;1879;45.876;12.300;2023-03-05T14:41:31;15.77;;;14.13;;
3726;SDS011;1879;45.876;12.300;2023-03-05T14:44:04;14.93;;;12.97;;
3726;SDS011;1879;45.876;12.300;2023-03-05T14:46:36;16.77;;;14.00;;
3726;SDS011;1879;45.876;12.300;2023-03-05T14:49:03;16.67;;;14.23;;
3726;SDS011;1879;45.876;12.300;2023-03-05T14:51:30;16.80;;;14.23;;
3726;SDS011;1879;45.876;12.300;2023-03-05T14:54:00;15.57;;;13.17;;
3726;SDS011;1879;45.876;12.300;2023-03-05T14:56:27;16.87;;;14.90;;
3726;SDS011;1879;45.876;12.300;2023-03-05T14:58:54;16.40;;;14.60;;
3726;SDS011;1879;45.876;12.300;2023-03-05T15:01:24;16.70;;;14.50;;